createdAt,value
2023-12-30T07:08:24.309Z,70.43
2023-12-30T07:10:53.599Z,70.38
2023-12-30T07:13:22.040Z,70.40
2023-12-30T07:15:52.740Z,70.25
2023-12-30T07:18:22.873Z,69.28
2023-12-30T07:20:51.679Z,69.31
2023-12-30T07:23:21.547Z,69.59
2023-12-30T07:25:53.097Z,69.27
2023-12-30T07:28:22.211Z,69.57
2023-12-30T07:30:52.201Z,68.85
2023-12-30T07:33:21.040Z,69.29
2023-12-30T07:35:50.274Z,69.14
2023-12-30T07:38:19.405Z,69.44
2023-12-30T07:40:48.995Z,69.39
2023-12-30T07:43:18.655Z,69.30
2023-12-30T07:45:49.259Z,69.46
2023-12-30T07:48:17.606Z,69.32
2023-12-30T07:50:46.878Z,69.20
2023-12-30T07:53:18.838Z,69.45
2023-12-30T07:55:50.636Z,69.92
2023-12-30T07:58:19.927Z,69.84
2023-12-30T08:00:48.566Z,69.06
2023-12-30T08:03:17.244Z,68.71
2023-12-30T08:05:46.094Z,67.71
2023-12-30T08:08:15.702Z,66.91
2023-12-30T08:10:44.222Z,66.94
2023-12-30T08:13:13.936Z,66.80
2023-12-30T08:15:41.976Z,66.36
2023-12-30T08:18:11.167Z,65.93
2023-12-30T08:20:39.632Z,66.02
2023-12-30T08:23:08.108Z,66.12
2023-12-30T08:25:36.080Z,66.17
2023-12-30T08:28:04.781Z,66.18
2023-12-30T08:30:34.849Z,66.13
2023-12-30T08:33:09.857Z,66.21
2023-12-30T08:35:41.601Z,65.68
2023-12-30T08:38:12.338Z,65.95
2023-12-30T08:40:40.788Z,66.19
2023-12-30T08:43:12.803Z,65.93
2023-12-30T08:45:43.092Z,66.67
2023-12-30T08:48:11.341Z,66.73
2023-12-30T08:50:39.650Z,66.67
2023-12-30T08:53:09.582Z,67.05
2023-12-30T08:55:40.043Z,66.64
2023-12-30T08:58:09.543Z,66.44
2023-12-30T09:00:38.933Z,66.40
2023-12-30T09:03:06.929Z,66.46
2023-12-30T09:05:35.557Z,66.48
2023-12-30T09:08:05.711Z,66.84
2023-12-30T09:10:36.126Z,67.15
2023-12-30T09:13:05.521Z,67.29
2023-12-30T09:15:35.728Z,66.90
2023-12-30T09:18:06.584Z,67.00
2023-12-30T09:20:34.456Z,67.22
2023-12-30T09:23:02.745Z,67.03
2023-12-30T09:25:31.090Z,67.39
2023-12-30T09:28:00.056Z,66.97
2023-12-30T09:30:28.371Z,67.17
2023-12-30T09:32:56.217Z,67.17
2023-12-30T09:35:26.154Z,66.92
2023-12-30T09:37:53.833Z,66.48
2023-12-30T09:40:21.608Z,66.69
2023-12-30T09:42:52.792Z,66.81
2023-12-30T09:45:23.387Z,66.81
2023-12-30T09:47:55.969Z,66.12
2023-12-30T09:50:23.818Z,66.96
2023-12-30T09:52:51.559Z,67.05
2023-12-30T09:59:03.178Z,68.01
2023-12-30T10:01:37.176Z,68.12
2023-12-30T10:04:08.748Z,67.31
2023-12-30T10:06:39.247Z,67.61
2023-12-30T10:09:07.758Z,68.36
2023-12-30T10:11:38.571Z,67.56
2023-12-30T10:14:06.872Z,66.64
2023-12-30T10:16:37.524Z,66.73
2023-12-30T10:19:12.121Z,65.67
2023-12-30T10:21:41.975Z,65.12
2023-12-30T10:24:11.907Z,63.72
2023-12-30T10:26:44.899Z,63.19
2023-12-30T10:29:13.818Z,62.00
2023-12-30T10:31:43.991Z,61.36
2023-12-30T10:34:12.606Z,61.08
2023-12-30T10:36:40.696Z,60.96
2023-12-30T10:39:16.869Z,60.63
2023-12-30T10:41:46.117Z,59.71
2023-12-30T10:44:14.025Z,60.56
2023-12-30T10:46:52.751Z,60.57
2023-12-30T10:49:26.840Z,59.93
2023-12-30T10:51:56.752Z,60.54
2023-12-30T10:54:38.408Z,59.46
2023-12-30T10:57:12.867Z,59.72
2023-12-30T10:59:44.372Z,61.24
2023-12-30T11:02:14.286Z,61.43
2023-12-30T11:04:44.192Z,60.56
2023-12-30T11:07:17.059Z,60.63
2023-12-30T11:09:45.329Z,60.70
2023-12-30T11:12:14.631Z,60.98
2023-12-30T11:14:42.677Z,60.00
2023-12-30T11:17:11.578Z,59.69
2023-12-30T11:19:41.354Z,59.50
2023-12-30T11:22:09.385Z,58.13
2023-12-30T11:24:44.221Z,57.90
2023-12-30T11:27:12.902Z,57.05
2023-12-30T11:29:43.204Z,55.47
2023-12-30T11:32:21.106Z,55.86
2023-12-30T11:34:50.586Z,55.17
2023-12-30T11:37:20.191Z,54.48
2023-12-30T11:39:51.369Z,55.29
2023-12-30T11:42:27.428Z,55.11
2023-12-30T11:45:04.305Z,54.69
2023-12-30T11:47:32.945Z,55.25
2023-12-30T11:50:11.388Z,54.62
2023-12-30T11:53:05.408Z,54.78
2023-12-30T11:55:34.038Z,54.88
2023-12-30T11:58:04.212Z,54.38
2023-12-30T12:00:32.249Z,53.94
2023-12-30T12:03:00.869Z,54.39
2023-12-30T12:05:30.586Z,54.06
2023-12-30T12:08:00.252Z,54.03
2023-12-30T12:10:30.611Z,53.55
2023-12-30T12:12:59.143Z,53.19
2023-12-30T12:15:31.031Z,52.13
2023-12-30T12:18:02.985Z,51.81
2023-12-30T12:20:38.100Z,50.76
2023-12-30T12:23:06.946Z,51.99
2023-12-30T12:25:37.636Z,50.87
2023-12-30T12:28:24.442Z,50.62
2023-12-30T12:30:52.871Z,50.33
2023-12-30T12:33:21.233Z,50.55
2023-12-30T12:39:19.240Z,49.87
2023-12-30T12:41:48.619Z,48.52
2023-12-30T12:44:17.016Z,47.68
2023-12-30T12:46:45.409Z,48.46
2023-12-30T12:49:15.604Z,47.56
2023-12-30T12:51:46.125Z,47.30
2023-12-30T12:54:15.108Z,47.38
2023-12-30T12:56:46.778Z,47.99
2023-12-30T12:59:15.361Z,49.42
2023-12-30T13:01:44.536Z,49.84
2023-12-30T13:04:15.106Z,50.02
2023-12-30T13:06:44.841Z,50.14
2023-12-30T13:09:36.196Z,50.18
2023-12-30T13:12:07.871Z,50.59
2023-12-30T13:14:36.680Z,49.96
2023-12-30T13:17:14.145Z,49.75
2023-12-30T13:19:43.196Z,48.74
2023-12-30T13:22:13.601Z,48.64
2023-12-30T13:24:41.842Z,47.87
2023-12-30T13:27:11.598Z,47.37
2023-12-30T13:29:40.034Z,46.73
2023-12-30T13:32:10.342Z,45.59
2023-12-30T13:34:41.868Z,45.77
2023-12-30T13:37:12.932Z,45.99
2023-12-30T13:39:43.546Z,45.01
2023-12-30T13:42:15.589Z,45.08
2023-12-30T13:44:45.797Z,45.77
2023-12-30T13:47:52.834Z,45.72
2023-12-30T13:50:28.412Z,45.60
2023-12-30T13:53:03.035Z,46.06
2023-12-30T13:55:34.712Z,45.74
2023-12-30T13:58:06.680Z,46.39
2023-12-30T14:00:41.512Z,46.54
2023-12-30T14:03:10.242Z,46.96
2023-12-30T14:05:46.700Z,47.39
2023-12-30T14:08:38.452Z,47.73
2023-12-30T14:11:09.931Z,47.87
2023-12-30T14:13:38.324Z,47.44
2023-12-30T14:16:07.618Z,47.10
2023-12-30T14:18:36.777Z,46.56
2023-12-30T14:21:07.948Z,45.72
2023-12-30T14:23:37.635Z,45.31
2023-12-30T14:26:06.463Z,44.63
2023-12-30T14:28:36.896Z,43.71
2023-12-30T14:31:05.211Z,43.71
2023-12-30T14:33:36.817Z,44.45
2023-12-30T14:36:06.806Z,45.42
2023-12-30T14:38:34.981Z,45.77
2023-12-30T14:41:03.911Z,46.53
2023-12-30T14:43:33.176Z,47.25
2023-12-30T14:46:08.801Z,46.98
2023-12-30T14:48:39.799Z,47.09
2023-12-30T14:54:40.102Z,47.18
2023-12-30T14:57:09.632Z,46.74
2023-12-30T14:59:39.619Z,46.30
2023-12-30T15:02:08.645Z,46.18
2023-12-30T15:04:38.187Z,46.07
2023-12-30T15:07:10.690Z,46.01
2023-12-30T15:09:38.981Z,46.43
